createdAt,value
2022-09-02T00:01:51.502Z,14.88
2022-09-02T00:04:23.325Z,14.85
2022-09-02T00:06:55.066Z,14.88
2022-09-02T00:09:26.309Z,14.83
2022-09-02T00:11:56.099Z,14.83
2022-09-02T00:14:27.644Z,14.81
2022-09-02T00:16:56.211Z,14.67
2022-09-02T00:19:26.788Z,14.67
2022-09-02T00:21:58.594Z,14.45
2022-09-02T00:24:27.456Z,14.43
2022-09-02T00:26:59.108Z,14.50
2022-09-02T00:29:28.669Z,14.63
2022-09-02T00:31:57.174Z,14.33
2022-09-02T00:34:28.625Z,14.64
2022-09-02T00:36:59.145Z,14.22
2022-09-02T00:39:27.628Z,14.56
2022-09-02T00:41:56.206Z,14.47
2022-09-02T00:44:24.371Z,14.50
2022-09-02T00:46:52.463Z,14.30
2022-09-02T00:49:28.368Z,14.38
2022-09-02T00:52:07.318Z,14.43
2022-09-02T00:54:41.090Z,14.42
2022-09-02T00:57:16.064Z,14.32
2022-09-02T00:59:54.379Z,14.06
2022-09-02T01:02:25.467Z,14.20
2022-09-02T01:13:28.579Z,14.20
2022-09-02T01:16:02.417Z,14.16
2022-09-02T01:18:32.408Z,14.10
2022-09-02T01:21:02.410Z,14.15
2022-09-02T01:23:34.818Z,14.12
2022-09-02T01:26:05.008Z,14.00
2022-09-02T01:28:34.940Z,14.10
2022-09-02T01:31:04.083Z,13.91
2022-09-02T01:33:32.269Z,14.04
2022-09-02T01:36:02.222Z,14.03
2022-09-02T01:38:36.418Z,14.00
2022-09-02T01:41:04.448Z,13.95
2022-09-02T01:43:35.186Z,13.96
2022-09-02T01:46:04.373Z,13.67
2022-09-02T01:48:34.100Z,13.94
2022-09-02T01:51:05.177Z,13.87
2022-09-02T01:53:35.245Z,13.83
2022-09-02T01:56:04.324Z,13.83
2022-09-02T01:58:36.357Z,13.82
2022-09-02T02:01:05.289Z,13.06
2022-09-02T02:03:34.189Z,13.83
2022-09-02T02:06:03.216Z,13.82
2022-09-02T02:08:34.159Z,13.81
2022-09-02T02:11:03.803Z,13.67
2022-09-02T02:13:33.375Z,13.77
2022-09-02T02:16:01.604Z,13.74
2022-09-02T02:18:31.363Z,13.72
2022-09-02T02:21:03.680Z,13.64
2022-09-02T02:23:35.003Z,13.61
2022-09-02T02:26:05.869Z,13.45
2022-09-02T02:28:37.413Z,13.25
2022-09-02T02:31:07.784Z,13.57
2022-09-02T02:33:38.977Z,13.31
2022-09-02T02:36:10.631Z,13.42
2022-09-02T02:38:40.125Z,13.54
2022-09-02T02:41:10.881Z,12.75
2022-09-02T02:43:42.267Z,13.49
2022-09-02T02:46:13.632Z,12.60
2022-09-02T02:48:44.091Z,12.88
2022-09-02T02:51:15.229Z,12.55
2022-09-02T02:53:48.424Z,13.27
2022-09-02T02:56:21.532Z,13.25
2022-09-02T02:58:51.786Z,13.01
2022-09-02T03:01:21.641Z,13.22
2022-09-02T03:03:52.550Z,13.23
2022-09-02T03:06:24.836Z,13.21
2022-09-02T03:08:55.298Z,13.18
2022-09-02T03:11:28.396Z,12.79
2022-09-02T03:13:57.743Z,13.13
2022-09-02T03:16:27.377Z,13.03
2022-09-02T03:18:56.629Z,13.10
2022-09-02T03:21:24.906Z,12.97
2022-09-02T03:23:54.261Z,12.51
2022-09-02T03:26:27.423Z,12.91
2022-09-02T03:28:57.653Z,12.95
2022-09-02T03:31:28.601Z,12.96
2022-09-02T03:33:57.946Z,12.73
2022-09-02T03:36:31.566Z,12.97
2022-09-02T03:39:03.686Z,12.93
2022-09-02T03:41:36.944Z,12.91
2022-09-02T03:44:06.634Z,12.91
2022-09-02T03:46:36.809Z,12.83
2022-09-02T03:49:06.728Z,12.77
2022-09-02T03:51:35.020Z,12.71
2022-09-02T03:54:07.505Z,12.83
2022-09-02T03:56:38.892Z,12.83
2022-09-02T03:59:10.193Z,12.80
2022-09-02T04:01:39.724Z,12.57
2022-09-02T04:04:12.669Z,12.21
2022-09-02T04:06:41.983Z,12.78
2022-09-02T04:09:10.603Z,12.61
2022-09-02T04:11:43.655Z,12.64
2022-09-02T04:14:13.848Z,12.81
2022-09-02T04:16:42.566Z,12.81
2022-09-02T04:19:11.316Z,12.63
2022-09-02T04:21:42.609Z,12.49
2022-09-02T04:24:12.798Z,12.81
2022-09-02T04:26:46.827Z,12.74
2022-09-02T04:29:20.855Z,12.74
2022-09-02T04:31:52.914Z,12.75
2022-09-02T04:34:59.522Z,12.73
2022-09-02T04:37:33.275Z,12.75
2022-09-02T04:40:11.338Z,12.67
2022-09-02T04:42:41.449Z,12.64
2022-09-02T04:45:11.746Z,12.60
2022-09-02T04:47:41.388Z,12.61
2022-09-02T04:50:10.777Z,12.60
2022-09-02T04:52:39.605Z,12.62
2022-09-02T04:55:08.119Z,12.63
2022-09-02T04:57:37.494Z,12.65
2022-09-02T05:00:14.778Z,12.70
2022-09-02T05:02:43.257Z,12.66
2022-09-02T05:05:18.405Z,12.67
2022-09-02T05:07:47.201Z,12.61
2022-09-02T05:10:15.941Z,12.60
2022-09-02T05:12:47.198Z,12.61
2022-09-02T05:15:16.733Z,12.64
2022-09-02T05:17:52.303Z,12.66
2022-09-02T05:20:20.699Z,12.69
2022-09-02T05:22:50.655Z,12.65
2022-09-02T05:25:21.642Z,12.69
2022-09-02T05:27:53.638Z,12.64
2022-09-02T05:30:23.174Z,12.77
2022-09-02T05:32:51.571Z,12.77
2022-09-02T05:35:19.639Z,12.74
2022-09-02T05:37:48.093Z,13.05
2022-09-02T05:40:16.264Z,14.20
2022-09-02T05:42:51.315Z,15.42
2022-09-02T05:45:20.330Z,16.16
2022-09-02T05:47:50.417Z,16.33
2022-09-02T05:50:24.744Z,16.05
2022-09-02T05:52:55.818Z,15.63
2022-09-02T05:55:24.658Z,15.39
2022-09-02T05:57:55.129Z,15.04
2022-09-02T06:00:23.964Z,15.21
2022-09-02T06:03:01.040Z,15.15
2022-09-02T06:05:34.231Z,14.91
2022-09-02T06:08:09.495Z,14.80
2022-09-02T06:10:42.708Z,14.71
2022-09-02T06:13:13.047Z,14.72
2022-09-02T06:15:45.276Z,14.82
2022-09-02T06:18:19.671Z,14.96
2022-09-02T06:20:51.732Z,15.01
2022-09-02T06:23:29.015Z,14.92
2022-09-02T06:26:01.029Z,14.99
2022-09-02T06:28:30.385Z,15.11
2022-09-02T06:31:00.015Z,15.22
2022-09-02T06:33:29.526Z,15.32
2022-09-02T06:35:57.740Z,15.31
2022-09-02T06:38:26.526Z,15.34
2022-09-02T06:40:56.390Z,15.40
2022-09-02T06:43:37.673Z,15.44
2022-09-02T06:46:27.641Z,15.45
2022-09-02T06:49:00.189Z,15.51
2022-09-02T06:51:31.708Z,15.56
2022-09-02T06:54:02.351Z,15.46
2022-09-02T06:56:34.768Z,15.47
2022-09-02T06:59:03.825Z,15.42
2022-09-02T07:01:44.236Z,15.52
2022-09-02T07:04:41.169Z,15.57
2022-09-02T07:07:13.463Z,15.59
2022-09-02T07:09:53.579Z,15.69
2022-09-02T07:12:23.384Z,15.58
2022-09-02T07:15:02.191Z,15.59
2022-09-02T07:17:35.555Z,15.63
2022-09-02T07:20:08.542Z,15.71
2022-09-02T07:22:46.781Z,15.78
2022-09-02T07:25:18.507Z,15.88
2022-09-02T07:27:48.338Z,15.92
2022-09-02T07:30:16.592Z,15.88
2022-09-02T07:32:46.594Z,15.74
2022-09-02T07:35:19.402Z,15.91
2022-09-02T07:37:55.685Z,16.06
2022-09-02T07:40:30.200Z,16.17
2022-09-02T07:42:59.275Z,16.19
2022-09-02T07:45:29.263Z,16.26
2022-09-02T07:47:58.106Z,16.38
2022-09-02T07:50:32.176Z,16.48
2022-09-02T07:53:13.980Z,16.54
2022-09-02T07:55:42.703Z,16.65
2022-09-02T07:58:12.206Z,16.70
2022-09-02T08:00:44.845Z,16.88
2022-09-02T08:03:19.445Z,17.00
2022-09-02T08:05:54.641Z,17.00
2022-09-02T08:08:26.291Z,17.06
2022-09-02T08:10:55.892Z,16.83
2022-09-02T08:13:27.069Z,17.15
2022-09-02T08:15:56.043Z,17.23
2022-09-02T08:18:25.116Z,17.28
2022-09-02T08:20:57.690Z,17.42
2022-09-02T08:23:44.152Z,17.52
2022-09-02T08:26:19.131Z,17.65
2022-09-02T08:28:51.076Z,17.70
2022-09-02T08:31:21.767Z,17.74
2022-09-02T08:33:49.917Z,17.84
2022-09-02T08:36:22.480Z,17.95
2022-09-02T08:38:51.181Z,18.05
2022-09-02T08:41:24.278Z,18.16
2022-09-02T08:43:56.316Z,18.28
2022-09-02T08:46:30.051Z,18.38
2022-09-02T08:49:01.114Z,18.47
2022-09-02T08:51:42.286Z,18.59
2022-09-02T08:54:18.417Z,18.64
2022-09-02T08:56:48.754Z,18.72
2022-09-02T08:59:28.524Z,18.83
2022-09-02T09:02:06.053Z,18.85
2022-09-02T09:04:59.388Z,18.87
2022-09-02T09:07:45.811Z,19.09
2022-09-02T09:10:21.098Z,19.15
2022-09-02T09:13:02.551Z,19.26
2022-09-02T09:15:49.373Z,19.45
2022-09-02T09:18:20.396Z,19.51
2022-09-02T09:20:49.560Z,19.59
2022-09-02T09:23:28.878Z,19.72
2022-09-02T09:26:08.989Z,19.89
2022-09-02T09:28:44.834Z,19.91
2022-09-02T09:31:20.971Z,20.02
2022-09-02T09:34:08.228Z,20.09
2022-09-02T09:36:53.701Z,20.15
2022-09-02T09:39:26.202Z,20.28
2022-09-02T09:41:56.484Z,20.42
2022-09-02T09:44:44.662Z,20.64
2022-09-02T09:47:19.797Z,20.67
2022-09-02T09:50:15.966Z,20.77
2022-09-02T09:52:51.414Z,20.76
2022-09-02T09:55:25.209Z,20.68
2022-09-02T09:57:54.746Z,20.77
2022-09-02T10:00:28.048Z,20.92
2022-09-02T10:03:01.818Z,21.03
2022-09-02T10:05:36.923Z,21.22
2022-09-02T10:08:10.142Z,21.39
2022-09-02T10:10:57.557Z,21.31
2022-09-02T10:13:29.805Z,21.42
2022-09-02T10:16:44.047Z,21.48
2022-09-02T10:19:25.435Z,21.43
2022-09-02T10:22:19.880Z,21.50
2022-09-02T10:25:07.764Z,21.54
2022-09-02T10:27:47.427Z,21.70
2022-09-02T10:30:21.851Z,21.79
2022-09-02T10:33:17.710Z,21.66
2022-09-02T10:35:48.692Z,21.64
2022-09-02T10:38:42.290Z,21.76
2022-09-02T10:41:32.689Z,21.79
2022-09-02T10:44:30.396Z,21.94
2022-09-02T10:47:02.387Z,22.07
2022-09-02T10:49:57.868Z,22.10
2022-09-02T10:53:05.952Z,22.13
2022-09-02T10:55:58.638Z,22.09
2022-09-02T10:58:40.178Z,22.16
2022-09-02T11:01:17.165Z,22.37
2022-09-02T11:03:52.037Z,22.49
2022-09-02T11:06:35.345Z,22.66
2022-09-02T11:09:16.608Z,22.57
2022-09-02T11:12:03.866Z,22.64
2022-09-02T11:14:37.235Z,22.69
2022-09-02T11:17:12.945Z,22.77
2022-09-02T11:19:49.118Z,22.82
2022-09-02T11:22:27.604Z,22.65
2022-09-02T11:25:01.830Z,22.46
2022-09-02T11:27:42.478Z,22.57
2022-09-02T11:30:21.008Z,22.51
2022-09-02T11:35:54.856Z,22.72
2022-09-02T11:38:37.293Z,22.92
2022-09-02T11:41:37.669Z,22.97
2022-09-02T11:44:40.752Z,23.08
2022-09-02T11:47:29.314Z,23.23
2022-09-02T11:50:35.782Z,23.15
2022-09-02T11:53:25.193Z,23.12
2022-09-02T11:56:04.562Z,23.23
2022-09-02T11:58:41.908Z,23.49
2022-09-02T12:01:32.421Z,23.69
2022-09-02T12:07:33.864Z,23.50
2022-09-02T12:10:02.826Z,23.45
2022-09-02T12:13:08.282Z,23.58
2022-09-02T12:15:37.069Z,23.89
2022-09-02T12:18:14.576Z,23.84
2022-09-02T12:21:15.980Z,23.95
2022-09-02T12:24:22.281Z,24.14
2022-09-02T12:27:10.057Z,24.16
2022-09-02T12:29:40.341Z,24.05
2022-09-02T12:32:10.428Z,24.17
2022-09-02T12:34:57.029Z,24.02
2022-09-02T12:38:16.750Z,24.00
2022-09-02T12:41:03.996Z,24.16
2022-09-02T12:43:38.497Z,24.30
2022-09-02T12:46:18.641Z,24.24
2022-09-02T12:49:05.720Z,24.16
2022-09-02T12:51:54.968Z,24.18
2022-09-02T12:54:29.029Z,24.12
2022-09-02T12:56:56.994Z,24.05
2022-09-02T12:59:30.836Z,23.90
2022-09-02T13:02:30.361Z,23.67
2022-09-02T13:05:15.948Z,23.62
2022-09-02T13:08:44.742Z,23.79
2022-09-02T13:11:57.968Z,24.00
2022-09-02T13:15:02.165Z,23.90
2022-09-02T13:17:48.032Z,23.78
2022-09-02T13:20:42.389Z,23.45
2022-09-02T13:24:02.156Z,23.19
2022-09-02T13:26:58.754Z,23.05
2022-09-02T13:30:19.463Z,22.86
2022-09-02T13:32:59.500Z,22.82
2022-09-02T13:35:29.864Z,22.95
2022-09-02T13:38:00.650Z,23.30
2022-09-02T13:40:33.545Z,23.42
2022-09-02T13:43:17.137Z,23.59
2022-09-02T13:45:46.586Z,23.87
2022-09-02T13:48:19.081Z,24.07
2022-09-02T13:50:49.199Z,23.86
2022-09-02T13:53:54.003Z,23.58
2022-09-02T13:56:17.610Z,23.34
2022-09-02T13:58:49.019Z,23.22
2022-09-02T14:01:27.957Z,23.12
2022-09-02T14:03:58.926Z,23.22
2022-09-02T14:06:29.780Z,23.28
2022-09-02T14:09:00.731Z,23.20
2022-09-02T14:11:34.633Z,23.15
2022-09-02T14:14:02.877Z,23.16
2022-09-02T14:16:34.260Z,23.15
2022-09-02T14:19:11.715Z,23.07
2022-09-02T14:21:47.141Z,22.97
2022-09-02T14:24:17.655Z,22.88
2022-09-02T14:26:48.506Z,22.99
2022-09-02T14:29:18.768Z,23.03
2022-09-02T14:31:47.718Z,22.92
2022-09-02T14:34:53.363Z,22.92
2022-09-02T14:37:24.097Z,22.91
2022-09-02T14:40:11.757Z,22.90
2022-09-02T14:42:56.603Z,22.95
2022-09-02T14:45:35.929Z,22.99
2022-09-02T14:48:21.105Z,23.05
2022-09-02T14:50:49.587Z,23.09
2022-09-02T14:53:24.901Z,23.18
2022-09-02T14:55:54.925Z,23.23
2022-09-02T14:58:27.050Z,23.21
2022-09-02T15:00:57.041Z,23.20
2022-09-02T15:03:28.998Z,23.26
2022-09-02T15:05:59.440Z,23.35
2022-09-02T15:08:27.431Z,23.36
2022-09-02T15:11:01.007Z,23.21
2022-09-02T15:13:33.813Z,23.04
2022-09-02T15:16:05.898Z,22.89
2022-09-02T15:18:36.472Z,22.76
2022-09-02T15:21:29.978Z,22.70
2022-09-02T15:24:07.226Z,22.69
2022-09-02T15:31:00.173Z,22.92
2022-09-02T15:33:28.878Z,22.92
2022-09-02T15:35:56.816Z,22.97
2022-09-02T15:38:24.858Z,23.03
2022-09-02T15:40:52.914Z,23.03
2022-09-02T15:43:27.044Z,23.07
2022-09-02T15:45:54.935Z,22.97
2022-09-02T15:48:26.730Z,22.98
2022-09-02T15:50:58.620Z,22.95
2022-09-02T15:53:26.497Z,22.98
2022-09-02T15:55:59.858Z,22.99
2022-09-02T15:58:28.098Z,22.93
2022-09-02T16:00:55.965Z,22.98
2022-09-02T16:03:39.250Z,22.87
2022-09-02T16:06:14.524Z,22.75
2022-09-02T16:08:44.380Z,22.71
2022-09-02T16:11:17.722Z,22.68
2022-09-02T16:13:49.502Z,22.66
2022-09-02T16:16:18.616Z,22.61
2022-09-02T16:18:51.375Z,22.57
2022-09-02T16:21:23.544Z,22.51
2022-09-02T16:23:52.820Z,22.48
2022-09-02T16:26:25.123Z,22.56
2022-09-02T16:28:55.661Z,22.54
2022-09-02T16:31:29.560Z,22.50
2022-09-02T16:33:59.602Z,22.45
2022-09-02T16:36:33.189Z,22.41
2022-09-02T16:39:01.760Z,22.34
2022-09-02T16:41:32.481Z,22.33
2022-09-02T16:44:01.154Z,22.27
2022-09-02T16:46:30.406Z,22.24
2022-09-02T16:48:59.981Z,22.18
2022-09-02T16:51:30.049Z,22.12
2022-09-02T16:54:00.480Z,22.05
2022-09-02T16:56:30.625Z,21.98
2022-09-02T16:59:02.711Z,21.82
2022-09-02T17:01:32.498Z,21.81
2022-09-02T17:04:03.012Z,21.81
2022-09-02T17:06:31.903Z,21.67
2022-09-02T17:09:05.618Z,21.66
2022-09-02T17:11:36.486Z,21.65
2022-09-02T17:14:06.774Z,21.57
2022-09-02T17:16:36.961Z,21.56
2022-09-02T17:19:06.958Z,21.44
2022-09-02T17:21:40.592Z,21.47
2022-09-02T17:24:11.304Z,21.43
2022-09-02T17:26:41.601Z,21.37
2022-09-02T17:29:26.285Z,21.35
2022-09-02T17:31:59.882Z,21.29
2022-09-02T17:34:30.968Z,21.23
2022-09-02T17:36:58.940Z,21.17
2022-09-02T17:39:27.050Z,21.09
2022-09-02T17:41:57.672Z,21.04
2022-09-02T17:44:28.102Z,21.01
2022-09-02T17:46:57.651Z,20.97
2022-09-02T17:49:25.773Z,20.89
2022-09-02T17:51:55.379Z,20.74
2022-09-02T17:54:23.519Z,20.78
2022-09-02T17:57:10.010Z,20.72
2022-09-02T17:59:59.170Z,20.66
2022-09-02T18:02:53.396Z,20.60
2022-09-02T18:05:29.282Z,20.51
2022-09-02T18:08:15.570Z,20.48
2022-09-02T18:10:58.004Z,20.36
2022-09-02T18:13:34.053Z,20.36
2022-09-02T18:16:25.642Z,20.26
2022-09-02T18:19:22.341Z,20.22
2022-09-02T18:22:06.341Z,19.98
2022-09-02T18:24:52.027Z,20.13
2022-09-02T18:27:43.680Z,20.08
2022-09-02T18:30:19.843Z,20.06
2022-09-02T18:33:15.629Z,19.91
2022-09-02T18:35:55.632Z,19.94
2022-09-02T18:38:28.653Z,19.85
2022-09-02T18:41:25.185Z,19.81
2022-09-02T18:44:29.051Z,19.72
2022-09-02T18:47:01.871Z,19.68
2022-09-02T18:49:35.809Z,19.68
2022-09-02T18:52:07.538Z,19.61
2022-09-02T18:54:46.451Z,19.60
2022-09-02T18:57:16.195Z,19.54
2022-09-02T18:59:53.164Z,19.49
2022-09-02T19:02:29.018Z,19.35
2022-09-02T19:05:07.072Z,19.38
2022-09-02T19:07:54.961Z,19.31
2022-09-02T19:10:23.655Z,19.30
2022-09-02T19:12:57.176Z,19.22
2022-09-02T19:15:25.689Z,19.20
2022-09-02T19:17:53.740Z,19.19
2022-09-02T19:20:31.105Z,19.17
2022-09-02T19:22:59.468Z,19.10
2022-09-02T19:25:31.898Z,19.05
2022-09-02T19:28:06.004Z,19.02
2022-09-02T19:30:37.419Z,18.99
2022-09-02T19:33:17.507Z,18.94
2022-09-02T19:35:49.993Z,18.97
2022-09-02T19:38:19.649Z,18.96
2022-09-02T19:40:49.610Z,18.92
2022-09-02T19:43:21.056Z,18.88
2022-09-02T19:45:51.510Z,18.85
2022-09-02T19:48:27.634Z,18.77
2022-09-02T19:50:56.752Z,18.74
2022-09-02T19:53:27.884Z,18.70
2022-09-02T19:55:55.757Z,18.65
2022-09-02T19:58:25.786Z,18.61
2022-09-02T20:00:55.456Z,18.47
2022-09-02T20:03:23.446Z,18.46
2022-09-02T20:05:52.569Z,18.47
2022-09-02T20:08:21.043Z,18.45
2022-09-02T20:10:56.260Z,18.41
2022-09-02T20:13:43.365Z,18.34
2022-09-02T20:16:18.292Z,18.24
2022-09-02T20:18:46.725Z,18.26
2022-09-02T20:21:20.606Z,18.23
2022-09-02T20:23:53.753Z,18.04
2022-09-02T20:26:36.680Z,18.11
2022-09-02T20:29:28.396Z,18.08
2022-09-02T20:32:06.041Z,17.90
2022-09-02T20:35:01.821Z,17.98
2022-09-02T20:37:40.458Z,17.97
2022-09-02T20:40:34.841Z,17.92
2022-09-02T20:43:26.159Z,17.89
2022-09-02T20:46:02.963Z,17.86
2022-09-02T20:48:58.495Z,17.81
2022-09-02T20:51:42.247Z,17.75
2022-09-02T20:54:24.178Z,17.72
2022-09-02T20:57:05.131Z,17.71
2022-09-02T20:59:44.902Z,17.63
2022-09-02T21:02:21.477Z,17.68
2022-09-02T21:04:55.714Z,17.65
2022-09-02T21:07:25.377Z,17.60
2022-09-02T21:10:02.341Z,17.58
2022-09-02T21:12:43.021Z,17.39
2022-09-02T21:15:23.971Z,17.49
2022-09-02T21:17:57.928Z,17.48
2022-09-02T21:20:32.114Z,17.45
2022-09-02T21:23:06.909Z,17.31
2022-09-02T21:25:43.993Z,17.38
2022-09-02T21:28:20.922Z,17.38
2022-09-02T21:31:04.171Z,17.37
2022-09-02T21:33:36.272Z,17.33
2022-09-02T21:36:06.408Z,17.28
2022-09-02T21:38:43.059Z,17.23
2022-09-02T21:41:28.834Z,17.16
2022-09-02T21:44:19.558Z,17.10
2022-09-02T21:47:01.398Z,17.04
2022-09-02T21:49:51.698Z,17.00
2022-09-02T21:52:35.023Z,16.80
2022-09-02T21:55:15.586Z,16.90
2022-09-02T21:57:57.077Z,16.88
2022-09-02T22:00:29.074Z,16.85
2022-09-02T22:03:04.023Z,16.85
2022-09-02T22:05:54.949Z,16.81
2022-09-02T22:08:36.023Z,16.72
2022-09-02T22:11:11.865Z,16.68
2022-09-02T22:13:42.028Z,16.67
2022-09-02T22:16:24.620Z,16.62
2022-09-02T22:19:11.171Z,16.57
2022-09-02T22:21:48.211Z,16.53
2022-09-02T22:24:17.699Z,16.52
2022-09-02T22:26:49.982Z,16.52
2022-09-02T22:29:26.673Z,16.46
2022-09-02T22:32:02.762Z,16.47
2022-09-02T22:34:39.040Z,16.43
2022-09-02T22:37:12.099Z,16.41
2022-09-02T22:39:47.808Z,16.39
2022-09-02T22:42:24.446Z,16.20
2022-09-02T22:45:17.123Z,16.33
2022-09-02T22:48:03.962Z,16.18
2022-09-02T22:50:56.334Z,16.27
2022-09-02T22:53:25.674Z,16.27
2022-09-02T22:55:59.759Z,16.22
2022-09-02T22:58:42.350Z,16.19
2022-09-02T23:01:19.274Z,16.16
2022-09-02T23:04:10.956Z,16.09
2022-09-02T23:06:39.038Z,16.13
2022-09-02T23:09:10.361Z,16.12
2022-09-02T23:11:49.685Z,16.10
2022-09-02T23:14:26.728Z,16.06
2022-09-02T23:17:27.387Z,16.08
2022-09-02T23:20:10.697Z,16.06
2022-09-02T23:22:50.731Z,16.03
2022-09-02T23:25:40.186Z,16.02
2022-09-02T23:28:16.626Z,15.97
2022-09-02T23:31:17.842Z,15.94
2022-09-02T23:33:56.968Z,15.89
2022-09-02T23:36:35.194Z,15.86
2022-09-02T23:39:13.028Z,15.83
2022-09-02T23:41:50.686Z,15.81
2022-09-02T23:44:18.652Z,15.81
2022-09-02T23:46:58.155Z,15.68
2022-09-02T23:49:40.163Z,15.74
2022-09-02T23:52:26.215Z,15.72
2022-09-02T23:55:05.699Z,15.70
2022-09-02T23:57:49.360Z,15.68
